sim
Sign-in with your pilot id or email,
or register
Callsign
Passwort

Schedule Details

Flight Number: RYR9086 (3)
Departure: Alicante Airport (LEAL) at 14:15
Arrival: Gothenburg Landvetter Airport (ESGG) at 18:00
Route: Ryanair Passenger Schedule. Enter filed route here before submitting Pirep.

Weather Information
Getting current METAR information for LEAL 251330Z 17008KT 110V210 CAVOK 22/09 Q1015 NOSIG
Getting current METAR information for ESGG 251350Z 20013KT 9999 -RA SCT005 BKN008 11/10 Q0998

Schedule Frequency

Route Map